createdAt,value
2019-03-20T00:00:04.537Z,84.89
2019-03-20T00:00:35.793Z,84.84
2019-03-20T00:01:08.045Z,84.66
2019-03-20T00:01:43.621Z,84.61
2019-03-20T00:02:12.314Z,84.59
2019-03-20T00:02:43.894Z,84.54
2019-03-20T00:03:15.134Z,84.51
2019-03-20T00:03:46.383Z,84.44
2019-03-20T00:04:17.587Z,83.97
2019-03-20T00:04:49.946Z,83.93
2019-03-20T00:05:21.485Z,83.95
2019-03-20T00:05:52.712Z,84.01
2019-03-20T00:06:24.879Z,84.09
2019-03-20T00:06:56.086Z,84.18
2019-03-20T00:07:27.304Z,84.12
2019-03-20T00:07:58.586Z,84.14
2019-03-20T00:08:29.790Z,84.19
2019-03-20T00:09:01.030Z,84.27
2019-03-20T00:09:32.225Z,84.70
2019-03-20T00:10:03.438Z,85.12
2019-03-20T00:10:34.638Z,85.25
2019-03-20T00:11:05.842Z,85.31
2019-03-20T00:11:37.050Z,85.46
2019-03-20T00:12:08.264Z,85.45
2019-03-20T00:12:39.521Z,85.48
2019-03-20T00:13:10.727Z,85.60
2019-03-20T00:13:41.934Z,85.70
2019-03-20T00:14:13.141Z,85.82
2019-03-20T00:14:44.359Z,86.16
2019-03-20T00:15:15.554Z,86.32
2019-03-20T00:15:46.773Z,86.54
2019-03-20T00:16:18.002Z,86.61
2019-03-20T00:16:49.217Z,86.74
2019-03-20T00:17:20.469Z,86.92
2019-03-20T00:17:51.682Z,87.06
2019-03-20T00:18:22.893Z,87.17
2019-03-20T00:18:54.088Z,87.27
2019-03-20T00:19:25.293Z,87.24
2019-03-20T00:19:56.502Z,87.18
2019-03-20T00:20:27.706Z,87.22
2019-03-20T00:20:58.912Z,87.31
2019-03-20T00:21:30.119Z,87.34
2019-03-20T00:22:01.318Z,87.36
2019-03-20T00:22:32.614Z,87.18
2019-03-20T00:23:03.852Z,87.00
2019-03-20T00:23:35.096Z,86.87
2019-03-20T00:24:06.314Z,86.87
2019-03-20T00:24:37.553Z,86.84
2019-03-20T00:25:08.766Z,86.88
2019-03-20T00:25:39.981Z,86.99
2019-03-20T00:26:11.189Z,87.08
2019-03-20T00:26:42.405Z,87.10
2019-03-20T00:27:13.608Z,87.13
2019-03-20T00:27:44.895Z,87.16
2019-03-20T00:28:16.099Z,87.17
2019-03-20T00:28:47.310Z,87.21
2019-03-20T00:29:18.509Z,87.38
2019-03-20T00:29:49.731Z,87.48
2019-03-20T00:30:20.973Z,87.53
2019-03-20T00:30:52.210Z,87.62
2019-03-20T00:31:23.418Z,87.78
2019-03-20T00:31:54.630Z,88.01
2019-03-20T00:32:25.840Z,88.08
2019-03-20T00:32:57.116Z,88.17
2019-03-20T00:33:28.327Z,88.26
2019-03-20T00:33:59.528Z,88.38
2019-03-20T00:34:30.732Z,88.54
2019-03-20T00:35:01.944Z,88.58
2019-03-20T00:35:33.210Z,88.74
2019-03-20T00:36:04.418Z,88.86
2019-03-20T00:36:35.622Z,88.90
2019-03-20T00:37:06.830Z,88.89
2019-03-20T00:37:38.075Z,88.84
2019-03-20T00:38:09.320Z,88.88
2019-03-20T00:38:40.514Z,88.93
2019-03-20T00:39:11.732Z,88.87
2019-03-20T00:39:42.937Z,88.82
2019-03-20T00:40:14.141Z,88.81
2019-03-20T00:40:45.382Z,88.79
2019-03-20T00:41:16.584Z,88.77
2019-03-20T00:41:48.640Z,88.87
2019-03-20T00:42:19.855Z,88.90
2019-03-20T00:42:51.081Z,88.90
2019-03-20T00:43:22.283Z,88.89
2019-03-20T00:43:53.500Z,88.87
2019-03-20T00:44:24.750Z,88.85
2019-03-20T00:44:55.955Z,88.79
2019-03-20T00:45:27.167Z,88.77
2019-03-20T00:45:58.376Z,88.73
2019-03-20T00:46:29.606Z,88.67
2019-03-20T00:47:00.822Z,88.62
2019-03-20T00:47:32.027Z,88.58
2019-03-20T00:48:03.292Z,88.57
2019-03-20T00:48:34.510Z,88.57
2019-03-20T00:49:05.707Z,88.55
2019-03-20T00:49:36.918Z,88.55
2019-03-20T00:50:08.148Z,88.57
2019-03-20T00:50:39.340Z,88.59
2019-03-20T00:51:10.530Z,88.60
2019-03-20T00:51:41.740Z,88.66
2019-03-20T00:52:12.946Z,88.76
2019-03-20T00:52:44.168Z,88.79
2019-03-20T00:53:15.432Z,88.83
2019-03-20T00:53:46.628Z,88.82
2019-03-20T00:54:17.847Z,88.83
2019-03-20T00:54:49.054Z,88.65
2019-03-20T00:55:20.271Z,88.55
2019-03-20T00:55:51.462Z,88.66
2019-03-20T00:56:22.661Z,88.71
2019-03-20T00:56:53.870Z,88.80
2019-03-20T00:57:25.072Z,88.95
2019-03-20T00:57:56.285Z,89.10
2019-03-20T00:58:27.551Z,89.22
2019-03-20T00:58:58.759Z,88.86
2019-03-20T00:59:29.968Z,89.34
2019-03-20T01:00:01.187Z,89.45
2019-03-20T01:00:32.390Z,89.47
2019-03-20T01:01:03.592Z,89.53
2019-03-20T01:01:34.808Z,89.59
2019-03-20T01:02:06.005Z,89.66
2019-03-20T01:02:37.198Z,89.63
2019-03-20T01:03:08.478Z,89.55
2019-03-20T01:03:39.687Z,89.56
2019-03-20T01:04:10.920Z,89.54
2019-03-20T01:04:42.122Z,89.57
2019-03-20T01:05:13.380Z,89.55
2019-03-20T01:05:44.583Z,89.57
2019-03-20T01:06:15.784Z,89.67
2019-03-20T01:06:46.990Z,89.80
2019-03-20T01:07:18.193Z,89.84
2019-03-20T01:07:49.460Z,89.90
2019-03-20T01:08:20.661Z,89.90
2019-03-20T01:08:51.858Z,89.93
2019-03-20T01:09:23.058Z,89.95
2019-03-20T01:09:54.261Z,89.90
2019-03-20T01:10:25.471Z,89.84
2019-03-20T01:10:56.705Z,89.79
2019-03-20T01:11:27.898Z,89.69
2019-03-20T01:11:59.106Z,89.65
2019-03-20T01:12:30.302Z,89.65
2019-03-20T01:13:01.514Z,89.60
2019-03-20T01:13:32.727Z,89.55
2019-03-20T01:14:03.933Z,89.54
2019-03-20T01:14:35.139Z,89.51
2019-03-20T01:15:06.340Z,89.53
2019-03-20T01:15:37.560Z,89.44
2019-03-20T01:16:08.778Z,89.24
2019-03-20T01:16:39.990Z,89.13
2019-03-20T01:17:11.240Z,89.01
2019-03-20T01:17:42.457Z,88.97
2019-03-20T01:18:13.653Z,88.93
2019-03-20T01:18:44.901Z,88.88
2019-03-20T01:19:16.121Z,88.78
2019-03-20T01:19:47.309Z,88.77
2019-03-20T01:20:18.539Z,88.67
2019-03-20T01:20:49.742Z,88.43
2019-03-20T01:21:20.964Z,87.88
2019-03-20T01:21:52.206Z,87.68
2019-03-20T01:22:23.417Z,87.46
2019-03-20T01:22:54.619Z,87.25
2019-03-20T01:23:25.833Z,86.84
2019-03-20T01:23:57.051Z,86.53
2019-03-20T01:24:28.255Z,86.17
2019-03-20T01:24:59.454Z,85.96
2019-03-20T01:25:30.648Z,85.64
2019-03-20T01:26:01.865Z,85.17
2019-03-20T01:26:33.123Z,84.68
2019-03-20T01:27:04.351Z,84.34
2019-03-20T01:27:35.552Z,84.34
2019-03-20T01:28:06.765Z,84.31
2019-03-20T01:28:37.987Z,84.45
2019-03-20T01:29:09.192Z,84.64
2019-03-20T01:29:40.390Z,85.01
2019-03-20T01:30:11.590Z,85.25
2019-03-20T01:30:42.844Z,85.20
2019-03-20T01:31:14.057Z,85.16
2019-03-20T01:31:45.297Z,84.98
2019-03-20T01:32:16.531Z,84.89
2019-03-20T01:32:47.737Z,84.90
2019-03-20T01:33:18.987Z,84.71
2019-03-20T01:33:50.202Z,84.30
2019-03-20T01:34:21.406Z,83.10
2019-03-20T01:34:52.621Z,82.22
2019-03-20T01:35:24.326Z,80.87
2019-03-20T01:35:55.609Z,80.43
2019-03-20T01:36:27.006Z,80.47
2019-03-20T01:36:58.212Z,80.51
2019-03-20T01:37:29.418Z,80.75
2019-03-20T01:38:00.626Z,80.88
2019-03-20T01:38:31.896Z,80.87
2019-03-20T01:39:03.106Z,80.95
2019-03-20T01:39:34.329Z,81.09
2019-03-20T01:40:05.568Z,81.51
2019-03-20T01:40:36.763Z,81.66
2019-03-20T01:41:07.974Z,81.52
2019-03-20T01:41:39.225Z,81.24
2019-03-20T01:42:10.437Z,81.33
2019-03-20T01:42:41.734Z,81.35
2019-03-20T01:43:12.936Z,81.44
2019-03-20T01:43:44.217Z,81.11
2019-03-20T01:44:15.433Z,80.93
2019-03-20T01:44:46.643Z,80.96
2019-03-20T01:45:17.989Z,81.07
2019-03-20T01:45:49.185Z,81.33
2019-03-20T01:46:20.446Z,81.60
2019-03-20T01:46:51.617Z,81.81
2019-03-20T01:47:22.830Z,81.88
2019-03-20T01:47:54.024Z,82.09
2019-03-20T01:48:25.224Z,81.88
2019-03-20T01:48:56.441Z,81.68
2019-03-20T01:49:27.660Z,81.66
2019-03-20T01:49:58.865Z,81.46
2019-03-20T01:50:30.092Z,81.31
2019-03-20T01:51:01.299Z,81.23
2019-03-20T01:51:32.505Z,80.98
2019-03-20T01:52:03.731Z,80.92
2019-03-20T01:52:34.982Z,81.16
2019-03-20T01:53:06.195Z,81.39
2019-03-20T01:53:37.401Z,81.53
2019-03-20T01:54:08.615Z,81.74
2019-03-20T01:54:39.821Z,81.86
2019-03-20T01:55:11.033Z,81.92
2019-03-20T01:55:42.246Z,81.92
2019-03-20T01:56:13.460Z,81.86
2019-03-20T01:56:44.672Z,81.95
2019-03-20T01:57:15.873Z,81.95
2019-03-20T01:57:47.137Z,81.98
2019-03-20T01:58:18.344Z,81.98
2019-03-20T01:58:49.557Z,81.91
2019-03-20T01:59:20.780Z,81.78
2019-03-20T01:59:52.002Z,81.76
2019-03-20T02:00:23.235Z,81.76
2019-03-20T02:00:54.405Z,81.82
2019-03-20T02:01:25.613Z,81.82
2019-03-20T02:01:56.850Z,81.86
2019-03-20T02:02:28.077Z,81.88
2019-03-20T02:02:59.280Z,81.91
2019-03-20T02:03:30.529Z,81.96
2019-03-20T02:04:01.729Z,82.02
2019-03-20T02:04:32.940Z,82.04
2019-03-20T02:05:04.163Z,82.04
2019-03-20T02:05:36.590Z,82.04
2019-03-20T02:06:08.071Z,82.03
2019-03-20T02:06:39.336Z,81.97
2019-03-20T02:07:10.540Z,81.96
2019-03-20T02:07:41.770Z,81.94
2019-03-20T02:08:12.984Z,82.04
2019-03-20T02:08:44.195Z,82.05
2019-03-20T02:09:15.404Z,82.29
2019-03-20T02:09:46.614Z,82.56
2019-03-20T02:10:17.827Z,82.62
2019-03-20T02:10:49.027Z,82.55
2019-03-20T02:11:20.327Z,82.47
2019-03-20T02:11:51.581Z,82.32
2019-03-20T02:12:22.795Z,82.28
2019-03-20T02:12:53.992Z,82.24
2019-03-20T02:13:25.195Z,82.15
2019-03-20T02:13:56.406Z,82.07
2019-03-20T02:14:27.611Z,81.92
2019-03-20T02:14:58.816Z,81.85
2019-03-20T02:15:38.651Z,81.89
2019-03-20T02:16:02.946Z,82.01
2019-03-20T02:16:34.162Z,82.10
2019-03-20T02:17:05.418Z,82.33
2019-03-20T02:17:36.621Z,82.48
2019-03-20T02:18:07.827Z,82.58
2019-03-20T02:18:39.040Z,82.61
2019-03-20T02:19:10.242Z,82.79
2019-03-20T02:19:41.449Z,83.10
2019-03-20T02:20:12.656Z,83.33
2019-03-20T02:20:43.853Z,83.61
2019-03-20T02:21:15.066Z,83.85
2019-03-20T02:21:46.290Z,84.06
2019-03-20T02:22:17.520Z,84.21
2019-03-20T02:22:48.725Z,84.45
2019-03-20T02:23:19.926Z,84.51
2019-03-20T02:23:51.120Z,84.40
2019-03-20T02:24:22.333Z,84.22
2019-03-20T02:24:53.543Z,84.18
2019-03-20T02:25:24.762Z,84.14
2019-03-20T02:25:56.006Z,84.16
2019-03-20T02:26:27.222Z,84.09
2019-03-20T02:26:58.440Z,84.06
2019-03-20T02:27:29.639Z,83.86
2019-03-20T02:28:00.839Z,83.80
2019-03-20T02:28:32.050Z,83.80
2019-03-20T02:29:03.282Z,83.78
2019-03-20T02:29:34.471Z,83.62
2019-03-20T02:30:05.671Z,83.61
2019-03-20T02:30:36.880Z,83.46
2019-03-20T02:31:08.189Z,83.27
2019-03-20T02:31:39.389Z,83.15
2019-03-20T02:32:10.601Z,83.03
2019-03-20T02:32:41.816Z,83.04
2019-03-20T02:33:13.018Z,83.06
2019-03-20T02:33:44.280Z,82.82
2019-03-20T02:34:15.487Z,82.66
2019-03-20T02:34:46.690Z,82.82
2019-03-20T02:35:17.910Z,82.88
2019-03-20T02:35:51.801Z,82.78
2019-03-20T02:36:22.118Z,82.96
2019-03-20T02:36:53.319Z,83.17
2019-03-20T02:37:24.527Z,83.37
2019-03-20T02:37:55.725Z,83.60
2019-03-20T02:38:26.969Z,83.84
2019-03-20T02:38:58.184Z,84.02
2019-03-20T02:39:29.386Z,84.16
2019-03-20T02:40:00.605Z,84.33
2019-03-20T02:40:31.828Z,84.30
2019-03-20T02:41:03.030Z,84.45
2019-03-20T02:41:34.279Z,84.63
2019-03-20T02:42:05.487Z,84.78
2019-03-20T02:42:36.691Z,84.73
2019-03-20T02:43:07.915Z,84.81
2019-03-20T02:43:39.112Z,84.82
2019-03-20T02:44:10.333Z,84.84
2019-03-20T02:44:41.526Z,84.89
2019-03-20T02:45:12.767Z,84.50
2019-03-20T02:45:43.960Z,84.50
2019-03-20T02:46:15.241Z,84.61
2019-03-20T02:46:46.465Z,84.58
2019-03-20T02:47:17.666Z,84.27
2019-03-20T02:47:48.884Z,84.18
2019-03-20T02:48:20.079Z,84.14
2019-03-20T02:48:51.291Z,84.02
2019-03-20T02:49:22.540Z,84.17
2019-03-20T02:49:53.764Z,84.26
2019-03-20T02:50:25.006Z,84.29
2019-03-20T02:50:56.233Z,84.35
2019-03-20T02:51:27.454Z,84.42
2019-03-20T02:51:58.668Z,84.58
2019-03-20T02:52:29.884Z,84.67
2019-03-20T02:53:00.904Z,84.52
2019-03-20T02:53:32.138Z,84.59
2019-03-20T02:54:03.305Z,84.80
2019-03-20T02:54:34.561Z,84.89
2019-03-20T02:55:05.767Z,84.64
2019-03-20T02:55:36.981Z,84.58
2019-03-20T02:56:08.213Z,84.54
2019-03-20T02:56:39.418Z,84.76
2019-03-20T02:57:10.631Z,84.82
2019-03-20T02:57:41.858Z,85.05
2019-03-20T02:58:13.050Z,85.08
2019-03-20T02:58:44.276Z,85.14
2019-03-20T02:59:15.481Z,85.28
2019-03-20T02:59:46.715Z,85.42
2019-03-20T03:00:17.956Z,85.45
2019-03-20T03:00:49.141Z,85.38
2019-03-20T03:01:20.363Z,84.94
2019-03-20T03:01:51.573Z,84.30
2019-03-20T03:02:22.761Z,84.04
2019-03-20T03:02:53.982Z,84.11
2019-03-20T03:03:25.182Z,84.33
2019-03-20T03:03:56.397Z,84.27
2019-03-20T03:04:27.603Z,84.28
2019-03-20T03:04:58.819Z,84.33
2019-03-20T03:05:30.011Z,84.44
2019-03-20T03:06:07.303Z,84.37
2019-03-20T03:06:34.195Z,84.31
2019-03-20T03:07:05.388Z,84.35
2019-03-20T03:07:36.610Z,83.98
2019-03-20T03:08:07.826Z,83.81
2019-03-20T03:08:39.087Z,83.92
2019-03-20T03:09:10.301Z,83.66
2019-03-20T03:09:41.487Z,83.63
2019-03-20T03:10:12.701Z,83.88
2019-03-20T03:10:43.913Z,83.95
2019-03-20T03:11:15.119Z,83.92
2019-03-20T03:11:46.361Z,83.95
2019-03-20T03:12:17.563Z,84.17
2019-03-20T03:12:48.762Z,84.21
2019-03-20T03:13:19.984Z,84.17
2019-03-20T03:13:51.185Z,84.12
2019-03-20T03:14:22.380Z,84.09
2019-03-20T03:14:53.586Z,83.94
2019-03-20T03:15:24.817Z,83.88
2019-03-20T03:15:56.013Z,83.90
2019-03-20T03:16:27.212Z,83.98
2019-03-20T03:16:58.462Z,84.08
2019-03-20T03:17:29.687Z,84.10
2019-03-20T03:18:00.900Z,84.27
2019-03-20T03:18:32.110Z,84.31
2019-03-20T03:19:03.325Z,84.28
2019-03-20T03:19:34.529Z,84.13
2019-03-20T03:20:05.744Z,83.93
2019-03-20T03:20:37.007Z,83.78
2019-03-20T03:21:08.220Z,83.75
2019-03-20T03:21:39.427Z,83.74
2019-03-20T03:22:10.649Z,83.78
2019-03-20T03:22:41.860Z,83.84
2019-03-20T03:23:13.050Z,83.85
2019-03-20T03:23:44.362Z,83.83
2019-03-20T03:24:15.568Z,83.77
2019-03-20T03:24:46.934Z,83.92
2019-03-20T03:25:18.166Z,84.00
2019-03-20T03:25:50.307Z,84.10
2019-03-20T03:26:21.666Z,84.43
2019-03-20T03:26:52.880Z,84.60
2019-03-20T03:27:24.098Z,84.59
2019-03-20T03:27:55.302Z,84.19
2019-03-20T03:28:26.494Z,84.12
2019-03-20T03:28:57.729Z,84.12
2019-03-20T03:29:28.945Z,84.11
2019-03-20T03:30:00.255Z,83.95
2019-03-20T03:30:31.915Z,83.82
2019-03-20T03:31:03.136Z,83.72
2019-03-20T03:31:34.429Z,83.67
2019-03-20T03:32:05.637Z,83.74
2019-03-20T03:32:36.844Z,83.80
2019-03-20T03:33:08.042Z,83.80
2019-03-20T03:33:39.266Z,83.86
2019-03-20T03:34:10.548Z,83.95
2019-03-20T03:34:41.719Z,83.90
2019-03-20T03:35:16.978Z,83.81
2019-03-20T03:35:45.861Z,83.83
2019-03-20T03:36:21.452Z,83.82
2019-03-20T03:36:50.018Z,83.81
2019-03-20T03:37:21.206Z,83.82
2019-03-20T03:37:52.411Z,83.89
2019-03-20T03:38:23.627Z,83.86
2019-03-20T03:38:54.815Z,83.85
2019-03-20T03:39:26.071Z,83.91
2019-03-20T03:39:57.278Z,84.03
2019-03-20T03:40:28.494Z,84.06
2019-03-20T03:40:59.707Z,83.95
2019-03-20T03:41:30.915Z,83.91
2019-03-20T03:42:02.125Z,83.94
2019-03-20T03:42:33.361Z,83.98
2019-03-20T03:43:04.584Z,84.00
2019-03-20T03:43:35.790Z,84.00
2019-03-20T03:44:06.993Z,84.36
2019-03-20T03:44:38.234Z,84.46
2019-03-20T03:45:09.446Z,84.35
2019-03-20T03:45:40.652Z,84.20
2019-03-20T03:46:11.888Z,84.02
2019-03-20T03:46:43.094Z,83.96
2019-03-20T03:47:14.309Z,83.93
2019-03-20T03:47:45.521Z,83.92
2019-03-20T03:48:16.723Z,83.85
2019-03-20T03:48:47.938Z,83.87
2019-03-20T03:49:19.170Z,83.85
2019-03-20T03:49:50.470Z,83.83
2019-03-20T03:50:21.685Z,83.78
2019-03-20T03:50:52.891Z,83.75
2019-03-20T03:51:24.144Z,83.74
2019-03-20T03:51:55.357Z,83.61
2019-03-20T03:52:26.569Z,83.50
2019-03-20T03:52:57.783Z,83.40
2019-03-20T03:53:28.974Z,83.42
2019-03-20T03:54:00.209Z,83.24
2019-03-20T03:54:31.396Z,83.22
2019-03-20T03:55:02.615Z,83.23
2019-03-20T03:55:33.874Z,83.13
2019-03-20T03:56:05.088Z,83.16
2019-03-20T03:56:36.291Z,83.21
2019-03-20T03:57:07.497Z,83.30
2019-03-20T03:57:38.699Z,83.37
2019-03-20T03:58:09.920Z,83.45
2019-03-20T03:58:41.121Z,83.56
2019-03-20T03:59:12.328Z,83.60
2019-03-20T03:59:43.538Z,83.61
2019-03-20T04:00:14.760Z,83.65
2019-03-20T04:00:46.040Z,83.39
2019-03-20T04:01:17.250Z,83.36
2019-03-20T04:01:48.454Z,83.54
2019-03-20T04:02:19.673Z,83.67
2019-03-20T04:02:50.886Z,83.60
2019-03-20T04:03:22.206Z,83.92
2019-03-20T04:03:53.394Z,83.97
2019-03-20T04:04:24.596Z,83.92
2019-03-20T04:04:55.809Z,83.96
2019-03-20T04:05:27.071Z,83.79
2019-03-20T04:05:58.282Z,83.70
2019-03-20T04:06:35.655Z,83.67
2019-03-20T04:07:02.426Z,83.62
2019-03-20T04:07:33.612Z,83.59
2019-03-20T04:08:04.828Z,83.62
2019-03-20T04:08:36.023Z,83.69
2019-03-20T04:09:07.239Z,83.96
2019-03-20T04:09:38.451Z,84.23
2019-03-20T04:10:09.649Z,84.36
2019-03-20T04:10:40.978Z,84.38
2019-03-20T04:11:12.186Z,84.32
2019-03-20T04:11:43.394Z,84.26
2019-03-20T04:12:14.593Z,84.23
2019-03-20T04:12:45.910Z,84.19
2019-03-20T04:13:17.096Z,84.18
2019-03-20T04:13:48.308Z,84.22
2019-03-20T04:14:19.542Z,84.31
2019-03-20T04:14:50.773Z,84.32
2019-03-20T04:15:21.973Z,84.30
2019-03-20T04:15:53.173Z,84.40
2019-03-20T04:16:24.385Z,84.51
2019-03-20T04:16:55.598Z,84.54
2019-03-20T04:17:26.832Z,84.53
2019-03-20T04:17:58.044Z,84.45
2019-03-20T04:18:29.246Z,84.13
2019-03-20T04:19:00.462Z,83.80
2019-03-20T04:19:31.673Z,83.76
2019-03-20T04:20:02.879Z,83.64
2019-03-20T04:20:34.211Z,83.57
2019-03-20T04:21:05.435Z,83.49
2019-03-20T04:21:36.671Z,83.58
2019-03-20T04:22:07.882Z,83.68
2019-03-20T04:22:39.097Z,83.79
2019-03-20T04:23:10.317Z,83.82
2019-03-20T04:23:41.525Z,83.81
2019-03-20T04:24:12.738Z,83.67
2019-03-20T04:24:43.937Z,83.67
2019-03-20T04:25:15.144Z,83.30
2019-03-20T04:25:46.349Z,83.23
2019-03-20T04:26:17.569Z,82.95
2019-03-20T04:26:48.815Z,82.92
2019-03-20T04:27:20.025Z,82.76
2019-03-20T04:27:51.229Z,82.50
2019-03-20T04:28:22.541Z,82.55
2019-03-20T04:28:53.740Z,82.52
2019-03-20T04:29:25.802Z,82.49
2019-03-20T04:29:57.007Z,82.33
2019-03-20T04:30:28.225Z,82.35
2019-03-20T04:30:59.436Z,82.78
2019-03-20T04:31:30.654Z,83.00
2019-03-20T04:32:01.857Z,83.04
2019-03-20T04:32:33.086Z,82.99
2019-03-20T04:33:04.361Z,82.93
2019-03-20T04:33:35.585Z,82.90
2019-03-20T04:34:06.796Z,82.85
2019-03-20T04:34:37.991Z,82.81
2019-03-20T04:35:09.200Z,82.81
2019-03-20T04:35:40.400Z,82.77
2019-03-20T04:36:11.617Z,82.75
2019-03-20T04:36:47.733Z,82.77
2019-03-20T04:37:15.757Z,82.77
2019-03-20T04:37:47.005Z,82.68
2019-03-20T04:38:18.223Z,82.58
2019-03-20T04:38:49.449Z,82.52
2019-03-20T04:39:20.649Z,82.55
2019-03-20T04:39:51.872Z,82.49
2019-03-20T04:40:23.158Z,82.50
2019-03-20T04:40:54.363Z,82.48
2019-03-20T04:41:25.578Z,82.46
2019-03-20T04:41:56.784Z,82.48
2019-03-20T04:42:28.016Z,82.57
2019-03-20T04:42:59.251Z,82.53
2019-03-20T04:43:30.500Z,82.60
2019-03-20T04:44:01.706Z,82.63
2019-03-20T04:44:33.236Z,82.63
2019-03-20T04:45:04.431Z,82.83
2019-03-20T04:45:35.641Z,82.87
2019-03-20T04:46:06.847Z,82.65
2019-03-20T04:46:38.045Z,82.32
2019-03-20T04:47:09.258Z,82.43
2019-03-20T04:47:40.469Z,81.70
2019-03-20T04:48:11.683Z,80.88
2019-03-20T04:48:42.930Z,80.43
2019-03-20T04:49:14.141Z,80.22
2019-03-20T04:49:45.393Z,80.28
2019-03-20T04:50:16.600Z,80.27
2019-03-20T04:50:47.822Z,80.06
2019-03-20T04:51:19.020Z,80.02
2019-03-20T04:51:50.225Z,80.14
2019-03-20T04:52:21.437Z,80.11
2019-03-20T04:52:52.654Z,79.75
2019-03-20T04:53:23.842Z,79.69
2019-03-20T04:53:55.051Z,79.45
2019-03-20T04:54:26.264Z,78.91
2019-03-20T04:54:57.505Z,78.58
2019-03-20T04:55:28.750Z,78.30
2019-03-20T04:55:59.953Z,78.11
2019-03-20T04:56:31.168Z,78.24
2019-03-20T04:57:02.372Z,77.78
2019-03-20T04:57:33.580Z,77.73
2019-03-20T04:58:04.798Z,77.94
2019-03-20T04:58:36.004Z,78.00
2019-03-20T04:59:07.220Z,77.54
2019-03-20T04:59:38.448Z,77.33
2019-03-20T05:00:09.696Z,77.32
2019-03-20T05:00:40.960Z,77.43
2019-03-20T05:01:12.169Z,77.64
2019-03-20T05:01:43.375Z,77.47
2019-03-20T05:02:14.591Z,77.40
2019-03-20T05:02:45.790Z,77.62
2019-03-20T05:03:16.991Z,77.73
2019-03-20T05:03:48.206Z,77.33
2019-03-20T05:04:19.421Z,77.23
2019-03-20T05:04:50.628Z,77.30
2019-03-20T05:05:21.847Z,77.36
2019-03-20T05:05:53.085Z,77.27
2019-03-20T05:06:24.296Z,77.21
2019-03-20T05:06:59.043Z,77.17
2019-03-20T05:07:28.448Z,77.32
2019-03-20T05:07:59.661Z,77.54
2019-03-20T05:08:30.880Z,77.80
2019-03-20T05:09:02.073Z,77.97
2019-03-20T05:09:33.285Z,78.12
2019-03-20T05:10:04.507Z,78.06
2019-03-20T05:10:35.773Z,78.50
2019-03-20T05:11:06.987Z,78.78
2019-03-20T05:11:38.198Z,78.65
2019-03-20T05:12:09.413Z,79.16
2019-03-20T05:12:40.636Z,79.31
2019-03-20T05:13:11.855Z,79.30
2019-03-20T05:13:43.068Z,79.18
2019-03-20T05:14:14.269Z,78.25
2019-03-20T05:14:45.483Z,77.78
2019-03-20T05:15:16.695Z,77.72
2019-03-20T05:15:47.945Z,77.26
2019-03-20T05:16:19.158Z,77.23
2019-03-20T05:16:50.391Z,77.20
2019-03-20T05:17:21.594Z,76.58
2019-03-20T05:17:52.802Z,76.28
2019-03-20T05:18:24.027Z,76.10
2019-03-20T05:18:55.233Z,75.93
2019-03-20T05:19:26.453Z,75.51
2019-03-20T05:19:57.677Z,75.25
2019-03-20T05:20:28.898Z,74.66
2019-03-20T05:21:00.121Z,74.68
2019-03-20T05:21:31.334Z,74.94
2019-03-20T05:22:02.549Z,75.33
2019-03-20T05:22:33.746Z,75.45
2019-03-20T05:23:04.963Z,75.33
2019-03-20T05:23:36.199Z,75.15
2019-03-20T05:24:07.397Z,74.90
2019-03-20T05:24:38.613Z,74.83
2019-03-20T05:25:09.879Z,74.73
2019-03-20T05:25:41.107Z,74.41
2019-03-20T05:26:12.766Z,74.27
2019-03-20T05:26:43.999Z,73.91
2019-03-20T05:27:15.226Z,73.80
2019-03-20T05:27:46.452Z,73.37
2019-03-20T05:28:17.695Z,72.72
2019-03-20T05:28:48.905Z,72.48
2019-03-20T05:29:20.117Z,72.49
2019-03-20T05:29:51.324Z,72.66
2019-03-20T05:30:22.580Z,72.89
2019-03-20T05:30:53.803Z,73.22
2019-03-20T05:31:25.004Z,73.23
2019-03-20T05:31:56.215Z,73.37
2019-03-20T05:32:27.430Z,73.41
2019-03-20T05:32:58.638Z,73.47
2019-03-20T05:33:29.897Z,73.49
2019-03-20T05:34:01.116Z,73.62
2019-03-20T05:34:32.326Z,73.59
2019-03-20T05:35:03.576Z,73.48
2019-03-20T05:35:34.808Z,73.88
2019-03-20T05:36:06.018Z,74.02
2019-03-20T05:36:37.229Z,74.13
2019-03-20T05:37:10.745Z,74.05
2019-03-20T05:37:41.374Z,74.25
2019-03-20T05:38:12.580Z,74.68
2019-03-20T05:38:43.838Z,75.11
2019-03-20T05:39:15.938Z,75.43
2019-03-20T05:39:47.345Z,76.26
2019-03-20T05:40:18.556Z,76.14
2019-03-20T05:40:49.759Z,76.73
2019-03-20T05:41:20.975Z,76.45
2019-03-20T05:41:52.186Z,76.07
2019-03-20T05:42:23.396Z,76.28
2019-03-20T05:42:54.630Z,76.36
2019-03-20T05:43:25.841Z,76.69
2019-03-20T05:43:57.039Z,76.85
2019-03-20T05:44:28.255Z,76.80
2019-03-20T05:44:59.491Z,76.71
2019-03-20T05:45:30.768Z,76.70
2019-03-20T05:46:01.988Z,76.86
2019-03-20T05:46:33.197Z,76.66
2019-03-20T05:47:04.395Z,76.55
2019-03-20T05:47:35.591Z,76.48
2019-03-20T05:48:06.847Z,76.62
2019-03-20T05:48:38.054Z,76.79
2019-03-20T05:49:09.266Z,76.79
2019-03-20T05:49:40.466Z,76.90
2019-03-20T05:50:11.699Z,76.97
2019-03-20T05:50:42.981Z,76.96
2019-03-20T05:51:14.198Z,76.65
2019-03-20T05:51:45.401Z,76.64
2019-03-20T05:52:16.661Z,75.97
2019-03-20T05:52:47.878Z,75.59
2019-03-20T05:53:19.095Z,75.92
2019-03-20T05:53:50.304Z,75.97
2019-03-20T05:54:21.508Z,76.17
2019-03-20T05:54:52.730Z,76.76
2019-03-20T05:55:23.944Z,76.04
2019-03-20T05:55:55.199Z,75.58
2019-03-20T05:56:26.415Z,75.39
2019-03-20T05:56:57.624Z,75.10
2019-03-20T05:57:28.850Z,74.94
2019-03-20T05:58:00.069Z,75.02
2019-03-20T05:58:31.248Z,74.67
2019-03-20T05:59:02.449Z,74.82
2019-03-20T05:59:33.664Z,74.86
2019-03-20T06:00:05.218Z,74.23
2019-03-20T06:00:36.408Z,73.87
2019-03-20T06:01:07.678Z,74.13
2019-03-20T06:01:38.941Z,73.90
2019-03-20T06:02:10.147Z,73.00
2019-03-20T06:02:41.365Z,73.88
2019-03-20T06:03:12.582Z,73.41
2019-03-20T06:03:43.785Z,73.06
2019-03-20T06:04:14.994Z,71.51
2019-03-20T06:04:46.204Z,70.68
2019-03-20T06:05:17.423Z,70.83
2019-03-20T06:05:48.663Z,71.47
2019-03-20T06:06:19.886Z,70.66
2019-03-20T06:06:51.109Z,70.31
2019-03-20T06:07:22.371Z,70.17
2019-03-20T06:07:53.583Z,69.98
2019-03-20T06:08:24.827Z,70.16
2019-03-20T06:08:56.029Z,69.00
2019-03-20T06:09:27.234Z,69.21
2019-03-20T06:09:58.450Z,70.06
2019-03-20T06:10:29.654Z,69.24
2019-03-20T06:11:00.881Z,68.91
2019-03-20T06:11:32.087Z,68.89
2019-03-20T06:12:03.315Z,68.70
2019-03-20T06:12:34.568Z,68.43
2019-03-20T06:13:05.792Z,68.42
2019-03-20T06:13:37.963Z,67.44
2019-03-20T06:14:09.167Z,67.89
2019-03-20T06:14:40.382Z,67.88
2019-03-20T06:15:11.652Z,68.18
2019-03-20T06:15:42.852Z,68.83
2019-03-20T06:16:15.153Z,68.95
2019-03-20T06:16:46.353Z,68.02
2019-03-20T06:17:17.567Z,67.73
2019-03-20T06:17:48.831Z,67.47
2019-03-20T06:18:20.085Z,66.46
2019-03-20T06:18:51.297Z,65.10
2019-03-20T06:19:22.505Z,65.55
2019-03-20T06:19:53.730Z,64.96
2019-03-20T06:20:24.963Z,65.03
2019-03-20T06:20:56.183Z,65.62
2019-03-20T06:21:27.408Z,65.85
2019-03-20T06:21:58.619Z,66.36
2019-03-20T06:22:29.843Z,67.17
2019-03-20T06:23:01.064Z,67.41
2019-03-20T06:23:32.310Z,67.41
2019-03-20T06:24:03.560Z,63.58
2019-03-20T06:24:34.743Z,61.93
2019-03-20T06:25:05.959Z,62.11
2019-03-20T06:25:37.212Z,63.48
2019-03-20T06:26:08.430Z,64.86
2019-03-20T06:26:39.639Z,63.83
2019-03-20T06:27:10.853Z,62.74
2019-03-20T06:27:42.071Z,64.90
2019-03-20T06:28:13.287Z,65.39
2019-03-20T06:28:44.485Z,61.89
2019-03-20T06:29:15.683Z,62.24
2019-03-20T06:29:46.903Z,62.50
2019-03-20T06:30:19.095Z,60.71
2019-03-20T06:30:50.324Z,60.07
2019-03-20T06:31:21.571Z,63.23
2019-03-20T06:31:52.781Z,63.08
2019-03-20T06:32:24.014Z,64.27
2019-03-20T06:32:55.224Z,63.77
2019-03-20T06:33:26.439Z,63.88
2019-03-20T06:33:57.649Z,63.74
2019-03-20T06:34:28.852Z,61.91
2019-03-20T06:35:00.065Z,61.62
2019-03-20T06:35:31.340Z,60.28
2019-03-20T06:36:02.564Z,60.86
2019-03-20T06:36:33.772Z,61.70
2019-03-20T06:37:04.990Z,62.76
2019-03-20T06:37:36.210Z,60.02
2019-03-20T06:38:07.417Z,62.17
2019-03-20T06:38:38.633Z,62.68
2019-03-20T06:39:09.868Z,62.59
2019-03-20T06:39:41.080Z,64.50
2019-03-20T06:40:12.294Z,63.80
2019-03-20T06:40:43.554Z,63.44
2019-03-20T06:41:14.774Z,60.89
2019-03-20T06:41:45.983Z,61.69
2019-03-20T06:42:17.180Z,61.72